Terminal Aerodrome Forecast
Issued by NWS

Home | Current Version | Previous Version | Text Only | Print | Product List | Glossary On
Versions: 1 2 3 4 5 6 7 8 9 10 11 12 13 14 15 16 17
000
FTUS41 KCLE 270500
TAFFDY
TAF
KFDY 270527Z 2706/2806 33005KT P6SM OVC035
     FM271900 30010KT P6SM OVC015
      TEMPO 2719/2723 3SM -SHSN
     FM280300 30008KT P6SM OVC020=

USA.gov is the U.S. government's official web portal to all federal, state and local government web resources and services.